Time;durP1;ratioP1;P1;durP2;ratioP2;P2;SDS_P1;SDS_P2;PMS_P1;PMS_P2;Temp;Humidity;BMP_temperature;BMP_pressure;BME280_temperature;BME280_humidity;BME280_pressure;Samples;Min_cycle;Max_cycle;Signal;HPM_P1;HPM_P2
2022/03/03 00:00:45;;;;;;;8.43;3.80;;;;;;;1.90;37.14;99296.03;5046005;28;20068;-48
2022/03/03 00:03:11;;;;;;;13.90;3.95;;;;;;;1.84;37.53;99293.50;5023851;28;20559;-46
2022/03/03 00:05:36;;;;;;;9.00;3.80;;;;;;;1.72;37.69;99259.41;5032147;28;20468;-48
2022/03/03 00:08:03;;;;;;;9.68;3.80;;;;;;;1.84;37.82;99290.06;5033616;28;20045;-50
2022/03/03 00:10:29;;;;;;;7.70;3.53;;;;;;;1.80;37.54;99283.28;5015964;28;20049;-49
2022/03/03 00:12:55;;;;;;;11.15;3.88;;;;;;;1.78;37.83;99280.72;5031620;28;20037;-47
2022/03/03 00:15:21;;;;;;;13.95;4.07;;;;;;;1.68;38.00;99273.94;5033488;28;20049;-50
2022/03/03 00:17:46;;;;;;;8.15;3.85;;;;;;;1.68;37.84;99273.94;5030778;28;20053;-48
2022/03/03 00:20:12;;;;;;;16.60;4.47;;;;;;;1.53;38.46;99253.53;5031759;28;20048;-51
2022/03/03 00:22:37;;;;;;;11.27;3.92;;;;;;;1.52;38.62;99262.91;5033440;28;20115;-48
2022/03/03 00:25:04;;;;;;;15.15;4.65;;;;;;;1.54;38.69;99262.91;5032999;28;20098;-48
2022/03/03 00:27:29;;;;;;;10.82;4.28;;;;;;;1.49;38.41;99256.97;5032454;28;20038;-47
2022/03/03 00:29:56;;;;;;;12.57;4.05;;;;;;;1.49;38.75;99259.53;5031180;28;20511;-49
2022/03/03 00:32:21;;;;;;;7.22;3.60;;;;;;;1.53;38.65;99262.06;5031829;28;20041;-48
2022/03/03 00:34:47;;;;;;;10.95;4.10;;;;;;;1.52;38.75;99251.81;5022864;28;20508;-46
2022/03/03 00:37:13;;;;;;;11.25;4.55;;;;;;;1.42;38.75;99245.03;5031162;28;20535;-48
2022/03/03 00:39:38;;;;;;;9.75;3.80;;;;;;;1.43;38.68;99251.88;5032774;28;20099;-48
2022/03/03 00:42:04;;;;;;;9.63;4.20;;;;;;;1.45;38.93;99251.00;5030800;28;20072;-51
2022/03/03 00:44:30;;;;;;;9.82;3.83;;;;;;;1.50;38.69;99243.31;5031114;28;20423;-50
2022/03/03 00:46:56;;;;;;;17.08;4.03;;;;;;;1.52;38.84;99239.00;5032897;28;20171;-49
2022/03/03 00:49:21;;;;;;;7.43;3.50;;;;;;;1.53;39.22;99240.72;5032878;28;20053;-48
2022/03/03 00:51:47;;;;;;;17.48;4.47;;;;;;;1.46;39.26;99229.66;5047296;28;20052;-49
2022/03/03 00:54:13;;;;;;;7.28;3.85;;;;;;;1.48;39.33;99237.31;5032154;28;20420;-46
2022/03/03 00:56:39;;;;;;;6.47;3.53;;;;;;;1.52;39.55;99234.75;5032300;28;20037;-45
2022/03/03 00:59:04;;;;;;;12.70;4.25;;;;;;;1.52;39.35;99233.88;5029975;28;20082;-51
2022/03/03 01:01:30;;;;;;;10.80;3.95;;;;;;;1.51;39.10;99232.19;5032040;28;20045;-51
2022/03/03 01:03:55;;;;;;;15.20;4.70;;;;;;;1.44;39.60;99221.13;5023629;28;20521;-48
2022/03/03 01:06:22;;;;;;;11.10;4.22;;;;;;;1.46;39.64;99232.22;5023737;28;20049;-48
2022/03/03 01:08:47;;;;;;;9.25;3.83;;;;;;;1.46;39.71;99231.38;5032585;28;20048;-47
2022/03/03 01:11:13;;;;;;;13.00;3.97;;;;;;;1.44;39.78;99227.97;5032084;28;20124;-49
2022/03/03 01:13:39;;;;;;;11.60;4.43;;;;;;;1.42;39.32;99219.44;5030851;28;20041;-48
2022/03/03 01:16:04;;;;;;;11.63;4.05;;;;;;;1.40;39.42;99214.34;5030898;28;20456;-53
2022/03/03 01:18:30;;;;;;;10.15;3.80;;;;;;;1.43;39.62;99219.44;5032069;28;20049;-49
2022/03/03 01:20:56;;;;;;;11.95;4.35;;;;;;;1.39;39.45;99211.78;5032400;28;20123;-48
2022/03/03 01:23:22;;;;;;;8.05;3.53;;;;;;;1.38;39.36;99213.47;5030604;28;20049;-46
2022/03/03 01:25:48;;;;;;;10.45;4.10;;;;;;;1.33;39.64;99209.22;5030899;28;20105;-47
2022/03/03 01:28:14;;;;;;;9.98;3.97;;;;;;;1.25;40.02;99202.47;5031086;28;20096;-47
2022/03/03 01:30:40;;;;;;;15.07;4.30;;;;;;;1.25;40.16;99197.34;5031784;28;20038;-48
2022/03/03 01:33:06;;;;;;;7.90;4.07;;;;;;;1.21;40.07;99197.34;5031146;28;20037;-48
2022/03/03 01:35:32;;;;;;;11.68;4.57;;;;;;;1.13;40.33;99194.81;5031772;28;20064;-48
2022/03/03 01:37:58;;;;;;;11.32;4.57;;;;;;;1.01;40.65;99188.91;5043786;28;20480;-49
2022/03/03 01:40:25;;;;;;;7.63;3.70;;;;;;;0.96;41.11;99182.94;5027211;28;20041;-48
2022/03/03 01:42:51;;;;;;;15.23;4.78;;;;;;;0.87;41.19;99170.19;5016717;28;20560;-48
2022/03/03 01:45:17;;;;;;;9.68;4.32;;;;;;;0.92;41.34;99178.72;5044891;28;20044;-48
2022/03/03 01:47:42;;;;;;;12.80;4.28;;;;;;;0.82;41.55;99176.19;5051655;28;20102;-49
2022/03/03 01:50:08;;;;;;;14.20;4.40;;;;;;;0.81;41.25;99171.91;5039898;28;20045;-48
2022/03/03 01:52:34;;;;;;;14.52;4.38;;;;;;;0.68;41.63;99148.97;5029655;28;20092;-49
2022/03/03 01:54:59;;;;;;;15.55;5.15;;;;;;;0.77;41.53;99166.81;5031419;28;20079;-48
2022/03/03 01:57:25;;;;;;;11.77;3.55;;;;;;;0.77;41.90;99161.72;5031220;28;20081;-52
2022/03/03 01:59:51;;;;;;;12.55;5.07;;;;;;;0.68;42.16;99162.56;5030150;28;20049;-49
2022/03/03 02:02:17;;;;;;;13.68;4.97;;;;;;;0.63;41.90;99160.91;5031321;28;20053;-48
2022/03/03 02:04:43;;;;;;;7.38;4.15;;;;;;;0.62;42.45;99166.88;5028426;28;20037;-48
2022/03/03 02:07:10;;;;;;;10.30;4.70;;;;;;;0.64;42.24;99155.78;5030717;28;20096;-47
2022/03/03 02:09:36;;;;;;;13.52;4.57;;;;;;;0.62;42.56;99160.06;5030919;28;20048;-46
2022/03/03 02:12:03;;;;;;;11.60;4.80;;;;;;;0.53;42.54;99152.38;5030776;28;20045;-51
2022/03/03 02:14:29;;;;;;;10.40;4.68;;;;;;;0.52;42.88;99153.28;5029531;28;20041;-48
2022/03/03 02:16:55;;;;;;;13.02;4.45;;;;;;;0.51;42.46;99150.72;5030808;28;20045;-47
2022/03/03 02:19:21;;;;;;;11.05;4.97;;;;;;;0.48;42.46;99143.03;5030621;28;20048;-48
2022/03/03 02:21:53;;;;;;;13.93;4.53;;;;;;;0.51;42.71;99141.34;5030617;28;20037;-48
2022/03/03 02:24:20;;;;;;;18.80;4.70;;;;;;;0.57;42.80;99141.31;5029671;28;20033;-47
2022/03/03 02:26:47;;;;;;;12.20;4.20;;;;;;;0.61;42.43;99139.59;5029717;28;20040;-48
2022/03/03 02:29:13;;;;;;;16.33;4.95;;;;;;;0.63;42.33;99148.13;5028644;28;20084;-51
2022/03/03 02:31:40;;;;;;;14.95;4.75;;;;;;;0.53;42.71;99141.31;5028910;28;20087;-49
2022/03/03 02:34:06;;;;;;;12.52;4.50;;;;;;;0.36;42.82;99139.69;5012817;28;20354;-49
2022/03/03 02:36:32;;;;;;;10.82;4.80;;;;;;;0.35;42.99;99126.88;5030589;28;20437;-49
2022/03/03 02:39:01;;;;;;;17.02;5.25;;;;;;;0.36;43.19;99136.25;5029424;28;20137;-49
2022/03/03 02:41:28;;;;;;;11.93;4.10;;;;;;;0.35;43.04;99129.44;5030853;28;20087;-49
2022/03/03 02:43:55;;;;;;;14.80;4.53;;;;;;;0.33;43.32;99134.56;5042871;28;20288;-52
2022/03/03 02:46:21;;;;;;;13.82;4.82;;;;;;;0.30;43.22;99119.22;5039404;28;20167;-47
2022/03/03 02:48:47;;;;;;;13.98;4.70;;;;;;;0.32;43.24;99127.72;5030090;28;20045;-47
2022/03/03 02:51:12;;;;;;;7.25;3.88;;;;;;;0.33;42.97;99120.91;5030203;28;20086;-47
2022/03/03 02:53:38;;;;;;;11.48;4.65;;;;;;;0.28;42.67;99113.25;5027836;28;20420;-48
2022/03/03 02:56:05;;;;;;;12.75;4.32;;;;;;;0.21;42.93;99114.13;5030722;28;20048;-51
2022/03/03 02:58:31;;;;;;;8.32;3.65;;;;;;;0.20;43.00;99117.56;5030313;28;20049;-49
2022/03/03 03:00:57;;;;;;;15.35;4.65;;;;;;;0.21;43.16;99113.28;5028787;28;20055;-46
2022/03/03 03:03:23;;;;;;;14.27;5.00;;;;;;;0.22;43.03;99109.88;5017352;28;20041;-48
2022/03/03 03:05:49;;;;;;;12.95;4.90;;;;;;;0.24;43.29;99111.56;5030372;28;20062;-48
2022/03/03 03:08:15;;;;;;;12.27;4.00;;;;;;;0.17;42.95;99086.03;5030128;28;20068;-47
2022/03/03 03:10:41;;;;;;;11.80;4.63;;;;;;;0.29;42.97;99093.66;5030398;28;20483;-50
2022/03/03 03:13:08;;;;;;;13.32;4.28;;;;;;;0.30;43.30;99091.13;5030523;28;20570;-46
2022/03/03 03:15:34;;;;;;;9.95;5.13;;;;;;;0.32;43.19;99094.50;5042431;28;20524;-51
2022/03/03 03:18:14;;;;;;;11.30;4.28;;;;;;;0.32;43.60;99102.16;5026249;28;20045;-50
2022/03/03 03:20:42;;;;;;;16.10;5.00;;;;;;;0.30;43.14;99092.81;5026951;28;20037;-45
2022/03/03 03:23:08;;;;;;;12.73;4.55;;;;;;;0.28;43.51;99094.50;5031917;28;20044;-50
2022/03/03 03:25:37;;;;;;;11.65;4.15;;;;;;;0.25;43.57;99099.66;5034381;28;20556;-46
2022/03/03 03:28:05;;;;;;;10.38;4.53;;;;;;;0.19;43.91;99092.84;5034589;28;20067;-51
2022/03/03 03:30:31;;;;;;;13.20;4.75;;;;;;;0.13;44.26;99077.53;5033926;28;20517;-50
2022/03/03 03:32:56;;;;;;;10.93;4.20;;;;;;;0.21;44.09;99093.66;5034250;28;20044;-50
2022/03/03 03:35:23;;;;;;;10.93;4.40;;;;;;;0.16;44.02;99074.94;5032952;28;20494;-49
2022/03/03 03:37:49;;;;;;;8.60;3.53;;;;;;;0.12;44.02;99077.50;5033577;28;20041;-49
2022/03/03 03:40:14;;;;;;;10.48;3.97;;;;;;;0.06;43.56;99073.25;5032017;28;20049;-44
2022/03/03 03:42:41;;;;;;;9.80;4.47;;;;;;;0.06;43.62;99067.31;5033899;28;20056;-51
2022/03/03 03:45:08;;;;;;;11.48;5.07;;;;;;;0.09;43.74;99064.75;5033876;28;20033;-50
2022/03/03 03:47:33;;;;;;;25.17;5.18;;;;;;;0.07;43.85;99064.75;5034271;28;20063;-49
2022/03/03 03:50:02;;;;;;;15.00;5.65;;;;;;;-0.02;43.79;99054.56;5033714;28;20140;-49
2022/03/03 03:52:29;;;;;;;12.32;5.25;;;;;;;0.11;43.67;99063.03;5033722;28;20049;-47
2022/03/03 03:54:55;;;;;;;12.30;4.93;;;;;;;0.12;44.17;99064.75;5033135;28;20064;-50
2022/03/03 03:57:21;;;;;;;15.50;5.38;;;;;;;0.12;44.31;99065.59;5031950;28;20485;-47
2022/03/03 03:59:47;;;;;;;10.68;4.60;;;;;;;0.13;44.44;99061.34;5015223;28;20531;-50
2022/03/03 04:02:13;;;;;;;13.07;5.25;;;;;;;0.11;44.43;99061.31;5032063;28;20037;-48
2022/03/03 04:04:38;;;;;;;15.45;5.53;;;;;;;0.05;44.54;99047.75;5033339;28;20049;-48
2022/03/03 04:07:04;;;;;;;18.63;5.00;;;;;;;0.09;45.17;99040.06;5033696;28;20045;-47
2022/03/03 04:09:30;;;;;;;18.08;6.05;;;;;;;0.12;45.29;99032.38;5033027;28;20049;-47
2022/03/03 04:11:55;;;;;;;21.00;5.65;;;;;;;0.23;45.49;99050.22;5048802;28;20204;-49
2022/03/03 04:14:21;;;;;;;16.90;6.10;;;;;;;0.23;45.57;99045.13;5033109;28;20041;-48
2022/03/03 04:16:47;;;;;;;23.90;6.50;;;;;;;0.24;45.87;99041.72;5033382;28;20182;-46
2022/03/03 04:19:14;;;;;;;23.17;6.10;;;;;;;0.24;46.01;99045.13;5032920;28;20527;-49
2022/03/03 04:21:39;;;;;;;17.88;6.13;;;;;;;0.26;45.88;99037.44;5032711;28;20095;-50
2022/03/03 04:24:06;;;;;;;17.60;6.75;;;;;;;0.26;45.63;99040.00;5033006;28;20041;-47
2022/03/03 04:26:33;;;;;;;23.58;5.43;;;;;;;0.24;45.35;99031.47;5031853;28;20512;-49
2022/03/03 04:28:59;;;;;;;15.60;4.05;;;;;;;0.10;45.42;99018.75;5032981;28;20037;-47
2022/03/03 04:31:24;;;;;;;13.82;4.90;;;;;;;0.19;45.13;99035.75;5032494;28;20064;-47
2022/03/03 04:33:50;;;;;;;13.90;5.18;;;;;;;0.26;45.51;99035.72;5032108;28;20053;-48
2022/03/03 04:36:16;;;;;;;17.40;5.47;;;;;;;0.29;45.86;99028.06;5032171;28;20567;-49
2022/03/03 04:38:42;;;;;;;14.38;4.85;;;;;;;0.22;45.65;99028.06;5032999;28;20041;-48
2022/03/03 04:41:08;;;;;;;13.75;5.38;;;;;;;0.31;45.60;99035.72;5032996;28;20053;-50
2022/03/03 04:43:34;;;;;;;12.18;4.47;;;;;;;0.36;46.07;99034.00;5030321;28;20037;-52
2022/03/03 04:46:00;;;;;;;17.83;5.55;;;;;;;0.36;45.71;99039.97;5032596;28;20086;-51
2022/03/03 04:48:29;;;;;;;14.35;5.60;;;;;;;0.36;45.45;99046.78;5032685;28;20045;-50
2022/03/03 04:50:58;;;;;;;;;;;;;;;0.39;45.97;99051.88;5017989;28;20050;-51
2022/03/03 04:53:27;;;;;;;21.90;5.38;;;;;;;0.34;45.38;99026.34;5016911;28;20303;-48
2022/03/03 04:55:54;;;;;;;21.05;5.75;;;;;;;0.54;45.14;99046.69;5031331;28;20124;-47
2022/03/03 04:58:20;;;;;;;13.20;4.40;;;;;;;0.53;45.15;99047.53;5031635;28;20033;-47
2022/03/03 05:00:46;;;;;;;12.57;4.57;;;;;;;0.54;45.26;99046.69;5030812;28;20151;-49
2022/03/03 05:03:12;;;;;;;17.40;4.97;;;;;;;0.55;45.41;99055.22;5031452;28;20041;-51
2022/03/03 05:05:37;;;;;;;18.58;5.93;;;;;;;0.53;45.51;99056.91;5025331;28;20135;-48
2022/03/03 05:08:03;;;;;;;34.72;6.38;;;;;;;0.56;45.75;99052.66;5013415;28;20061;-48
2022/03/03 05:10:29;;;;;;;27.55;8.45;;;;;;;0.61;45.82;99057.75;5031018;28;20567;-51
2022/03/03 05:12:55;;;;;;;19.17;7.20;;;;;;;0.68;45.40;99062.81;5013467;28;20512;-50
2022/03/03 05:15:21;;;;;;;17.20;6.07;;;;;;;0.74;45.32;99054.25;5029034;28;20652;-53
2022/03/03 05:17:46;;;;;;;22.88;6.15;;;;;;;0.80;45.45;99056.78;5016923;28;20436;-53
2022/03/03 05:20:15;;;;;;;23.38;6.25;;;;;;;0.74;45.40;99042.31;5029461;28;20504;-51
2022/03/03 05:22:41;;;;;;;22.00;6.60;;;;;;;0.77;45.30;99060.22;5032617;28;20068;-50
2022/03/03 05:25:08;;;;;;;28.17;6.45;;;;;;;0.70;45.14;99045.75;5026238;28;20083;-49
2022/03/03 05:27:34;;;;;;;21.42;6.25;;;;;;;0.80;45.25;99060.22;5029260;28;20034;-50
2022/03/03 05:30:00;;;;;;;25.30;6.68;;;;;;;0.87;44.98;99061.03;5024455;28;20460;-49
2022/03/03 05:32:26;;;;;;;25.90;6.55;;;;;;;0.91;44.84;99057.59;5027695;28;20048;-50
2022/03/03 05:34:52;;;;;;;24.80;6.85;;;;;;;0.97;44.71;99051.59;5025951;28;20044;-53
2022/03/03 05:37:22;;;;;;;24.73;6.63;;;;;;;1.20;44.73;99047.19;5028524;28;20037;-50
2022/03/03 05:39:48;;;;;;;16.75;5.78;;;;;;;1.38;44.37;99059.81;5028088;28;20053;-55
2022/03/03 05:42:13;;;;;;;25.92;6.03;;;;;;;1.49;43.87;99036.69;5030060;28;20508;-48
2022/03/03 05:44:41;;;;;;;20.25;5.78;;;;;;;1.74;43.49;99053.53;5028609;28;20043;-47
2022/03/03 05:47:06;;;;;;;14.77;5.47;;;;;;;1.96;42.98;99049.91;5030707;28;20052;-47
2022/03/03 05:49:33;;;;;;;15.45;5.22;;;;;;;2.46;41.90;99054.47;5030941;28;20042;-48
2022/03/03 05:51:58;;;;;;;17.42;5.43;;;;;;;3.16;40.33;99037.28;5031153;28;20045;-45
2022/03/03 05:54:24;;;;;;;17.23;5.65;;;;;;;3.78;39.01;99041.41;5031747;28;20075;-45
2022/03/03 05:56:53;;;;;;;11.60;5.35;;;;;;;4.36;37.71;99038.59;5063136;28;20054;-47
2022/03/03 05:59:22;;;;;;;13.45;3.85;;;;;;;4.66;36.28;99035.41;5030028;28;20139;-47
2022/03/03 06:01:47;;;;;;;10.60;4.33;;;;;;;4.85;35.78;99028.16;5028898;28;20120;-51
2022/03/03 06:04:15;;;;;;;13.50;4.75;;;;;;;5.21;35.46;99035.94;5045568;28;20141;-45
2022/03/03 06:06:47;;;;;;;15.40;5.20;;;;;;;6.06;34.67;99032.09;5026064;28;20046;-46
2022/03/03 06:09:14;;;;;;;15.18;4.93;;;;;;;6.47;32.86;99024.94;5038215;28;20613;-48
2022/03/03 06:11:59;;;;;;;19.95;6.55;;;;;;;7.09;32.28;99033.44;5035356;28;20059;-48
2022/03/03 06:14:31;;;;;;;22.88;6.00;;;;;;;7.40;31.78;99026.41;5016224;28;20124;-49
2022/03/03 06:16:58;;;;;;;19.40;5.75;;;;;;;8.16;31.42;99031.63;5028816;28;20033;-51
2022/03/03 06:19:24;;;;;;;23.63;5.85;;;;;;;8.31;29.58;99015.56;5010825;28;20128;-51
2022/03/03 06:21:49;;;;;;;17.35;6.35;;;;;;;8.44;29.00;99027.16;5028451;28;20516;-48
2022/03/03 06:24:15;;;;;;;13.18;5.05;;;;;;;8.47;29.02;99021.03;5029365;28;20036;-47
2022/03/03 06:26:41;;;;;;;15.95;5.47;;;;;;;9.03;29.14;99020.66;5038240;28;20053;-47
2022/03/03 06:29:07;;;;;;;13.45;5.28;;;;;;;9.44;28.25;99001.69;5032216;28;20033;-50
2022/03/03 06:31:32;;;;;;;17.15;5.82;;;;;;;10.16;27.02;99012.53;5041786;28;20045;-45
2022/03/03 06:33:58;;;;;;;12.23;5.13;;;;;;;10.48;26.85;98998.97;5030480;28;20064;-50
2022/03/03 06:36:25;;;;;;;14.35;6.07;;;;;;;11.08;26.09;98996.22;5041264;28;20426;-49
2022/03/03 06:38:50;;;;;;;22.77;6.53;;;;;;;11.57;24.99;99010.28;5048244;28;20043;-47
2022/03/03 06:41:16;;;;;;;18.08;6.13;;;;;;;11.38;24.96;99002.56;4996493;28;20196;-50
2022/03/03 06:43:42;;;;;;;16.45;5.82;;;;;;;12.06;24.83;99001.75;5030882;28;20052;-50
2022/03/03 06:46:09;;;;;;;12.15;5.00;;;;;;;12.49;24.07;98996.91;5030405;28;20081;-48
2022/03/03 06:48:34;;;;;;;18.77;6.13;;;;;;;12.40;24.16;98992.19;5039264;28;20036;-48
2022/03/03 06:51:03;;;;;;;17.50;5.60;;;;;;;12.62;23.43;98992.72;5030643;28;20045;-46
2022/03/03 06:53:31;;;;;;;11.55;4.88;;;;;;;12.45;23.13;98991.03;5032003;28;20045;-48
2022/03/03 06:56:06;;;;;;;19.65;6.25;;;;;;;12.57;23.30;98974.72;5030495;28;20057;-46
2022/03/03 06:58:33;;;;;;;18.33;6.10;;;;;;;13.06;22.80;98987.69;5029141;28;20041;-48
2022/03/03 07:01:03;;;;;;;14.85;5.65;;;;;;;13.26;22.22;98991.81;5016937;28;20045;-47
2022/03/03 07:03:30;;;;;;;20.73;6.35;;;;;;;13.87;22.27;98984.75;5042291;28;20041;-47
2022/03/03 07:05:57;;;;;;;16.15;6.07;;;;;;;14.75;21.35;98982.03;5034673;28;20458;-48
2022/03/03 07:08:23;;;;;;;20.40;5.97;;;;;;;15.15;20.82;98977.72;5036575;28;20048;-47
2022/03/03 07:10:49;;;;;;;16.10;6.20;;;;;;;15.33;20.37;98988.81;5045377;28;20045;-49
2022/03/03 07:13:17;;;;;;;19.20;6.13;;;;;;;15.89;20.28;98974.59;5030055;28;20357;-47
2022/03/03 07:16:12;;;;;;;14.48;5.90;;;;;;;16.66;19.51;98973.66;5028487;28;20428;-47
2022/03/03 07:18:40;;;;;;;12.00;6.03;;;;;;;17.16;19.37;98975.31;5029958;28;20087;-47
2022/03/03 07:21:21;;;;;;;16.10;5.85;;;;;;;17.41;18.92;98957.75;5029918;28;20045;-49
2022/03/03 07:23:48;;;;;;;15.02;5.75;;;;;;;17.18;18.82;98965.50;5028607;28;20045;-50
2022/03/03 07:26:15;;;;;;;14.88;5.32;;;;;;;17.34;18.37;98970.47;5029342;28;20131;-49
2022/03/03 07:28:46;;;;;;;9.35;4.97;;;;;;;17.38;18.16;98958.78;5009222;28;20053;-51
2022/03/03 07:31:15;;;;;;;14.95;5.63;;;;;;;17.44;18.52;98955.72;5028506;28;20476;-47
2022/03/03 07:33:55;;;;;;;14.18;6.47;;;;;;;17.69;18.31;98962.66;5029932;28;20543;-51
2022/03/03 07:36:29;;;;;;;16.88;6.60;;;;;;;18.63;18.01;98949.28;5028329;28;20073;-51
2022/03/03 07:39:00;;;;;;;16.45;5.45;;;;;;;19.58;17.21;98956.47;5028189;28;20050;-49
2022/03/03 07:41:27;;;;;;;16.02;6.28;;;;;;;20.29;16.38;98953.88;5028454;28;20124;-45
2022/03/03 07:43:54;;;;;;;14.50;5.72;;;;;;;20.37;16.13;98944.47;5027459;28;20144;-45
2022/03/03 07:46:21;;;;;;;13.77;6.30;;;;;;;21.01;16.19;98951.09;5028083;28;20458;-42
2022/03/03 07:48:47;;;;;;;19.45;6.70;;;;;;;21.41;15.81;98958.13;5045185;28;20052;-45
2022/03/03 07:51:13;;;;;;;21.40;7.53;;;;;;;21.32;16.05;98954.50;5029551;28;20037;-43
2022/03/03 07:53:39;;;;;;;17.80;6.85;;;;;;;21.42;15.91;98952.69;5027363;28;20099;-44
2022/03/03 07:56:07;;;;;;;20.75;8.18;;;;;;;21.51;15.92;98948.41;5028427;28;20501;-48
2022/03/03 07:58:34;;;;;;;16.77;7.35;;;;;;;21.31;15.95;98944.06;5011887;28;20056;-44
2022/03/03 08:01:00;;;;;;;24.63;7.35;;;;;;;21.09;16.12;98939.84;5028734;28;20140;-45
2022/03/03 08:03:27;;;;;;;13.10;6.40;;;;;;;21.07;15.77;98941.78;5029189;28;20073;-47
2022/03/03 08:05:55;;;;;;;15.77;7.07;;;;;;;21.18;15.83;98939.06;5029883;28;20088;-47
2022/03/03 08:08:29;;;;;;;15.13;6.82;;;;;;;21.30;15.97;98945.06;5030148;28;20203;-48
2022/03/03 08:11:04;;;;;;;13.95;6.70;;;;;;;21.38;15.51;98943.38;5015166;28;20048;-45
2022/03/03 08:13:30;;;;;;;17.40;7.50;;;;;;;21.41;15.38;98943.09;5015036;28;20635;-48
2022/03/03 08:15:57;;;;;;;16.67;6.90;;;;;;;21.29;15.45;98924.88;5032766;28;20045;-44
2022/03/03 08:18:32;;;;;;;17.38;6.75;;;;;;;21.56;15.57;98943.53;5032730;28;20037;-43
2022/03/03 08:21:01;;;;;;;16.23;7.57;;;;;;;21.84;15.51;98942.63;5032833;28;20029;-45
2022/03/03 08:23:27;;;;;;;15.90;6.50;;;;;;;21.77;15.00;98933.59;5031259;28;20064;-44
2022/03/03 08:25:55;;;;;;;14.63;6.80;;;;;;;21.63;14.92;98935.84;5032372;28;20073;-46
2022/03/03 08:28:24;;;;;;;14.93;6.63;;;;;;;21.20;15.15;98934.44;5031532;28;20120;-45
2022/03/03 08:31:00;;;;;;;19.02;6.57;;;;;;;21.88;14.70;98935.25;5031706;28;20464;-45
2022/03/03 08:34:02;;;;;;;14.52;6.70;;;;;;;21.60;14.76;98934.31;5031497;28;20042;-47
2022/03/03 08:36:45;;;;;;;11.82;5.38;;;;;;;21.36;14.66;98933.88;5008321;28;20041;-43
2022/03/03 08:39:16;;;;;;;14.50;6.00;;;;;;;21.75;14.66;98930.25;5032673;28;20090;-43
2022/03/03 08:41:43;;;;;;;19.65;6.57;;;;;;;22.01;15.02;98916.44;5031659;28;20052;-45
2022/03/03 08:44:11;;;;;;;15.60;6.05;;;;;;;22.17;14.33;98921.97;5032476;28;20107;-45
2022/03/03 08:46:39;;;;;;;9.68;5.60;;;;;;;21.93;14.39;98923.25;5030169;28;20501;-45
2022/03/03 08:49:08;;;;;;;15.43;5.93;;;;;;;22.39;14.47;98914.53;5024775;28;20071;-43
2022/03/03 08:51:34;;;;;;;13.65;5.63;;;;;;;22.76;14.18;98909.19;5028042;28;20099;-43
2022/03/03 08:54:00;;;;;;;12.35;5.63;;;;;;;22.74;14.07;98918.28;5012936;28;20088;-44
2022/03/03 08:56:26;;;;;;;14.02;7.00;;;;;;;23.09;14.01;98917.47;5011773;28;20103;-45
2022/03/03 08:58:52;;;;;;;17.15;6.65;;;;;;;23.58;13.73;98916.16;5017025;28;20538;-47
2022/03/03 09:01:18;;;;;;;13.70;6.32;;;;;;;24.13;13.45;98907.91;5032498;28;20163;-45
2022/03/03 09:03:44;;;;;;;14.07;6.63;;;;;;;23.95;13.28;98913.28;5023089;28;20508;-44
2022/03/03 09:06:17;;;;;;;12.68;5.80;;;;;;;23.92;13.15;98906.44;5011430;28;20061;-48
2022/03/03 09:08:44;;;;;;;15.85;6.07;;;;;;;23.95;12.93;98910.63;5015328;28;20068;-45
2022/03/03 09:11:10;;;;;;;12.05;4.53;;;;;;;23.91;13.11;98911.91;5032596;28;20081;-45
2022/03/03 09:13:35;;;;;;;10.55;5.20;;;;;;;24.42;12.87;98922.53;5031920;28;20045;-44
2022/03/03 09:16:01;;;;;;;10.57;5.22;;;;;;;24.62;12.45;98920.47;5010972;28;20049;-47
2022/03/03 09:18:27;;;;;;;14.73;5.90;;;;;;;24.96;12.15;98912.47;5011313;28;20065;-45
2022/03/03 09:20:53;;;;;;;10.55;5.53;;;;;;;25.55;12.19;98913.19;5014591;28;20045;-47
2022/03/03 09:23:18;;;;;;;9.70;4.20;;;;;;;25.89;12.16;98895.22;5032023;28;20041;-46
2022/03/03 09:25:44;;;;;;;11.80;5.05;;;;;;;26.34;12.03;98901.78;5031808;28;20041;-48
2022/03/03 09:28:10;;;;;;;8.50;4.07;;;;;;;26.44;11.86;98902.44;5031774;28;20065;-46
2022/03/03 09:30:36;;;;;;;12.93;4.40;;;;;;;26.21;11.61;98910.31;5030073;28;20120;-46
2022/03/03 09:33:04;;;;;;;10.05;4.53;;;;;;;26.13;11.79;98905.00;5014087;28;20046;-43
2022/03/03 09:35:30;;;;;;;10.52;4.72;;;;;;;26.08;11.58;98894.84;5031720;28;20132;-45
2022/03/03 09:37:56;;;;;;;11.23;4.82;;;;;;;25.90;11.89;98896.91;5031705;28;20144;-45
2022/03/03 09:40:21;;;;;;;10.40;4.50;;;;;;;25.95;11.52;98904.38;5030271;28;20564;-44
2022/03/03 09:43:13;;;;;;;7.45;4.07;;;;;;;26.02;11.57;98892.88;5030481;28;20128;-46
2022/03/03 09:45:39;;;;;;;10.15;4.53;;;;;;;26.32;11.93;98894.00;5029424;28;20504;-45
2022/03/03 09:48:07;;;;;;;18.80;9.23;;;;;;;26.43;11.72;98893.59;5013975;28;20095;-45
2022/03/03 09:50:37;;;;;;;11.50;4.70;;;;;;;26.00;11.60;98881.56;5029910;28;20048;-48
2022/03/03 09:53:11;;;;;;;9.23;4.60;;;;;;;25.99;11.28;98887.88;5031313;28;20129;-47
2022/03/03 09:55:38;;;;;;;6.57;3.47;;;;;;;24.67;11.73;98874.78;5031221;28;20064;-45
2022/03/03 09:58:06;;;;;;;5.95;3.17;;;;;;;24.51;11.75;98880.88;5013225;28;20045;-46
2022/03/03 10:00:36;;;;;;;5.28;3.55;;;;;;;22.58;12.64;98870.34;5030824;28;20045;-46
2022/03/03 10:03:13;;;;;;;7.88;3.58;;;;;;;22.08;12.99;98865.44;5030991;28;20069;-45
2022/03/03 10:05:47;;;;;;;6.95;3.60;;;;;;;22.15;13.09;98873.63;5030720;28;20061;-45
2022/03/03 10:08:14;;;;;;;5.32;3.50;;;;;;;21.63;13.45;98873.19;5029212;28;20087;-46
2022/03/03 10:10:45;;;;;;;8.82;4.97;;;;;;;21.40;13.48;98867.38;5030679;28;20041;-45
2022/03/03 10:13:17;;;;;;;8.52;3.50;;;;;;;21.44;13.47;98870.56;5031231;28;20071;-46
2022/03/03 10:15:44;;;;;;;8.85;3.50;;;;;;;21.65;13.46;98858.00;5029583;28;20132;-44
2022/03/03 10:18:14;;;;;;;16.83;5.72;;;;;;;22.32;13.12;98847.22;5030811;28;20527;-45
2022/03/03 10:20:53;;;;;;;12.07;3.90;;;;;;;23.10;12.62;98855.50;5029114;28;20056;-46
2022/03/03 10:23:33;;;;;;;7.65;4.57;;;;;;;24.41;12.37;98848.28;5030436;28;20045;-45
2022/03/03 10:26:01;;;;;;;5.45;3.22;;;;;;;25.33;11.91;98856.94;5028987;28;20065;-45
2022/03/03 10:28:28;;;;;;;7.78;3.55;;;;;;;25.14;12.17;98854.63;5029486;28;20038;-48
2022/03/03 10:31:01;;;;;;;6.50;3.45;;;;;;;24.86;11.60;98847.94;5028295;28;20044;-46
2022/03/03 10:33:38;;;;;;;3.63;2.83;;;;;;;24.75;11.65;98857.03;5029643;28;20091;-48
2022/03/03 10:36:14;;;;;;;5.43;3.50;;;;;;;24.40;11.92;98846.63;5030198;28;20204;-46
2022/03/03 10:38:46;;;;;;;4.47;3.42;;;;;;;25.03;11.86;98841.66;5030385;28;20433;-46
2022/03/03 10:41:35;;;;;;;10.63;3.50;;;;;;;25.62;11.74;98843.19;5012820;28;20088;-44
2022/03/03 10:44:17;;;;;;;6.80;2.95;;;;;;;25.69;11.48;98854.81;5020914;28;20057;-46
2022/03/03 10:47:11;;;;;;;6.70;3.08;;;;;;;25.82;11.46;98848.97;5030439;28;20513;-45
2022/03/03 10:49:39;;;;;;;8.50;3.50;;;;;;;26.39;11.41;98844.31;5030400;28;20457;-44
2022/03/03 10:52:29;;;;;;;5.32;2.95;;;;;;;26.73;11.55;98841.31;5030590;28;20080;-45
2022/03/03 10:55:05;;;;;;;8.40;3.63;;;;;;;27.20;11.63;98845.69;5021801;28;20094;-44
2022/03/03 10:57:56;;;;;;;5.70;3.17;;;;;;;26.63;11.25;98846.03;5030459;28;20033;-45
2022/03/03 11:00:27;;;;;;;5.93;2.80;;;;;;;26.73;11.27;98843.13;5030074;28;20056;-45
2022/03/03 11:02:55;;;;;;;5.15;2.38;;;;;;;26.78;11.30;98832.78;5030449;28;20473;-44
2022/03/03 11:05:22;;;;;;;5.30;3.25;;;;;;;26.89;11.20;98843.06;5030136;28;20048;-44
2022/03/03 11:07:49;;;;;;;4.00;2.47;;;;;;;27.28;11.35;98835.75;5030153;28;20124;-45
2022/03/03 11:10:17;;;;;;;6.65;3.50;;;;;;;27.42;11.63;98834.97;5030204;28;20044;-46
2022/03/03 11:12:43;;;;;;;5.60;3.47;;;;;;;27.59;10.95;98835.69;5029305;28;20037;-45
2022/03/03 11:15:11;;;;;;;8.63;3.25;;;;;;;27.37;11.02;98828.53;5028928;28;20520;-43
2022/03/03 11:17:37;;;;;;;9.43;3.40;;;;;;;27.32;11.25;98826.38;5012429;28;20167;-45
2022/03/03 11:20:05;;;;;;;6.00;3.00;;;;;;;27.29;11.56;98829.41;5028922;28;20116;-43
2022/03/03 11:22:31;;;;;;;5.50;3.00;;;;;;;27.15;11.20;98808.88;5028877;28;20099;-47
2022/03/03 11:24:59;;;;;;;4.90;2.70;;;;;;;26.80;11.48;98820.06;5028453;28;20045;-45
2022/03/03 11:27:32;;;;;;;9.23;2.55;;;;;;;26.80;11.28;98812.06;5029061;28;20048;-45
2022/03/03 11:30:14;;;;;;;6.22;3.85;;;;;;;27.07;11.72;98814.25;5028694;28;20512;-46
2022/03/03 11:32:40;;;;;;;5.63;3.00;;;;;;;27.20;11.68;98814.50;5029730;28;20052;-47
2022/03/03 11:35:08;;;;;;;5.85;3.08;;;;;;;27.00;11.63;98820.50;5029565;28;20041;-45